sensor_id;sensor_type;location;lat;lon;timestamp;pressure;altitude;pressure_sealevel;temperature;humidity
80585;BME280;70137;56.482;9.154;2024-02-26T00:01:52;100466.63;;;3.55;100.00
80585;BME280;70137;56.482;9.154;2024-02-26T00:04:17;100471.63;;;3.57;100.00
80585;BME280;70137;56.482;9.154;2024-02-26T00:06:43;100472.91;;;3.62;100.00
80585;BME280;70137;56.482;9.154;2024-02-26T00:09:09;100476.94;;;3.65;100.00
80585;BME280;70137;56.482;9.154;2024-02-26T00:11:37;100477.75;;;3.65;100.00
80585;BME280;70137;56.482;9.154;2024-02-26T00:14:03;100480.22;;;3.67;100.00
80585;BME280;70137;56.482;9.154;2024-02-26T00:16:29;100487.78;;;3.68;100.00
80585;BME280;70137;56.482;9.154;2024-02-26T00:18:54;100485.09;;;3.70;100.00
80585;BME280;70137;56.482;9.154;2024-02-26T00:21:19;100485.78;;;3.72;100.00
80585;BME280;70137;56.482;9.154;2024-02-26T00:23:45;100485.66;;;3.73;100.00
80585;BME280;70137;56.482;9.154;2024-02-26T00:26:10;100485.53;;;3.75;100.00
80585;BME280;70137;56.482;9.154;2024-02-26T00:28:36;100488.91;;;3.76;100.00
80585;BME280;70137;56.482;9.154;2024-02-26T00:31:01;100484.56;;;3.76;100.00
80585;BME280;70137;56.482;9.154;2024-02-26T00:33:27;100484.47;;;3.78;100.00
80585;BME280;70137;56.482;9.154;2024-02-26T00:35:53;100481.47;;;3.72;100.00
80585;BME280;70137;56.482;9.154;2024-02-26T00:38:18;100490.47;;;3.67;100.00
80585;BME280;70137;56.482;9.154;2024-02-26T00:40:44;100480.44;;;3.64;100.00
80585;BME280;70137;56.482;9.154;2024-02-26T00:43:09;100486.66;;;3.61;100.00
80585;BME280;70137;56.482;9.154;2024-02-26T00:45:35;100487.72;;;3.59;100.00
80585;BME280;70137;56.482;9.154;2024-02-26T00:48:00;100491.22;;;3.58;100.00
80585;BME280;70137;56.482;9.154;2024-02-26T00:50:33;100488.66;;;3.58;100.00
80585;BME280;70137;56.482;9.154;2024-02-26T00:52:59;100493.88;;;3.56;100.00
80585;BME280;70137;56.482;9.154;2024-02-26T00:55:24;100501.03;;;3.53;100.00
80585;BME280;70137;56.482;9.154;2024-02-26T00:57:49;100504.53;;;3.52;100.00
80585;BME280;70137;56.482;9.154;2024-02-26T01:00:15;100508.97;;;3.50;100.00
80585;BME280;70137;56.482;9.154;2024-02-26T01:02:41;100513.50;;;3.46;100.00
80585;BME280;70137;56.482;9.154;2024-02-26T01:05:12;100510.25;;;3.44;100.00
80585;BME280;70137;56.482;9.154;2024-02-26T01:07:38;100521.44;;;3.43;100.00
80585;BME280;70137;56.482;9.154;2024-02-26T01:10:04;100523.06;;;3.44;100.00
80585;BME280;70137;56.482;9.154;2024-02-26T01:12:31;100521.69;;;3.40;100.00
80585;BME280;70137;56.482;9.154;2024-02-26T01:14:57;100525.06;;;3.40;100.00
80585;BME280;70137;56.482;9.154;2024-02-26T01:17:23;100529.38;;;3.40;100.00
80585;BME280;70137;56.482;9.154;2024-02-26T01:19:48;100536.94;;;3.41;100.00
80585;BME280;70137;56.482;9.154;2024-02-26T01:22:13;100537.75;;;3.42;100.00
80585;BME280;70137;56.482;9.154;2024-02-26T01:24:39;100541.00;;;3.44;100.00
80585;BME280;70137;56.482;9.154;2024-02-26T01:27:04;100543.44;;;3.45;100.00
80585;BME280;70137;56.482;9.154;2024-02-26T01:29:29;100541.34;;;3.51;100.00
80585;BME280;70137;56.482;9.154;2024-02-26T01:31:55;100544.03;;;3.49;100.00
80585;BME280;70137;56.482;9.154;2024-02-26T01:34:21;100535.41;;;3.50;100.00
80585;BME280;70137;56.482;9.154;2024-02-26T01:36:47;100537.03;;;3.51;100.00
80585;BME280;70137;56.482;9.154;2024-02-26T01:39:12;100542.03;;;3.53;100.00
80585;BME280;70137;56.482;9.154;2024-02-26T01:41:38;100543.41;;;3.57;100.00
80585;BME280;70137;56.482;9.154;2024-02-26T01:44:04;100550.88;;;3.60;100.00
80585;BME280;70137;56.482;9.154;2024-02-26T01:46:31;100554.91;;;3.62;100.00
80585;BME280;70137;56.482;9.154;2024-02-26T01:48:58;100553.97;;;3.63;100.00
80585;BME280;70137;56.482;9.154;2024-02-26T01:51:24;100550.59;;;3.63;100.00
80585;BME280;70137;56.482;9.154;2024-02-26T01:53:50;100558.16;;;3.64;100.00
80585;BME280;70137;56.482;9.154;2024-02-26T01:56:17;100547.78;;;3.66;100.00
80585;BME280;70137;56.482;9.154;2024-02-26T01:58:43;100547.56;;;3.69;100.00
80585;BME280;70137;56.482;9.154;2024-02-26T02:01:09;100549.31;;;3.68;100.00
80585;BME280;70137;56.482;9.154;2024-02-26T02:03:35;100556.06;;;3.69;100.00
80585;BME280;70137;56.482;9.154;2024-02-26T02:06:02;100553.50;;;3.69;100.00
80585;BME280;70137;56.482;9.154;2024-02-26T02:08:28;100556.28;;;3.66;100.00
80585;BME280;70137;56.482;9.154;2024-02-26T02:10:54;100563.06;;;3.67;100.00
80585;BME280;70137;56.482;9.154;2024-02-26T02:13:19;100562.13;;;3.68;100.00
80585;BME280;70137;56.482;9.154;2024-02-26T02:15:44;100566.31;;;3.69;100.00
80585;BME280;70137;56.482;9.154;2024-02-26T02:18:10;100563.75;;;3.69;100.00
80585;BME280;70137;56.482;9.154;2024-02-26T02:20:35;100571.44;;;3.69;100.00
80585;BME280;70137;56.482;9.154;2024-02-26T02:23:02;100564.69;;;3.68;100.00
80585;BME280;70137;56.482;9.154;2024-02-26T02:25:28;100570.84;;;3.66;100.00
80585;BME280;70137;56.482;9.154;2024-02-26T02:27:54;100567.06;;;3.60;100.00
80585;BME280;70137;56.482;9.154;2024-02-26T02:30:21;100574.88;;;3.59;100.00
80585;BME280;70137;56.482;9.154;2024-02-26T02:32:49;100567.19;;;3.59;100.00
80585;BME280;70137;56.482;9.154;2024-02-26T02:35:14;100576.50;;;3.60;100.00
80585;BME280;70137;56.482;9.154;2024-02-26T02:37:40;100577.44;;;3.59;100.00
80585;BME280;70137;56.482;9.154;2024-02-26T02:40:06;100575.91;;;3.56;100.00
80585;BME280;70137;56.482;9.154;2024-02-26T02:42:31;100579.28;;;3.57;100.00
80585;BME280;70137;56.482;9.154;2024-02-26T02:44:57;100576.03;;;3.55;100.00
80585;BME280;70137;56.482;9.154;2024-02-26T02:47:22;100581.03;;;3.56;100.00
80585;BME280;70137;56.482;9.154;2024-02-26T02:49:48;100581.03;;;3.56;100.00
80585;BME280;70137;56.482;9.154;2024-02-26T02:52:13;100586.16;;;3.56;100.00
80585;BME280;70137;56.482;9.154;2024-02-26T02:54:38;100581.03;;;3.56;100.00
80585;BME280;70137;56.482;9.154;2024-02-26T02:57:07;100581.84;;;3.57;100.00
80585;BME280;70137;56.482;9.154;2024-02-26T02:59:32;100586.16;;;3.56;100.00
80585;BME280;70137;56.482;9.154;2024-02-26T03:01:57;100587.09;;;3.55;100.00
80585;BME280;70137;56.482;9.154;2024-02-26T03:04:23;100592.22;;;3.55;100.00
80585;BME280;70137;56.482;9.154;2024-02-26T03:06:48;100595.59;;;3.56;100.00
80585;BME280;70137;56.482;9.154;2024-02-26T03:09:14;100596.41;;;3.56;100.00
80585;BME280;70137;56.482;9.154;2024-02-26T03:11:39;100598.06;;;3.57;100.00
80585;BME280;70137;56.482;9.154;2024-02-26T03:14:05;100600.50;;;3.59;100.00
80585;BME280;70137;56.482;9.154;2024-02-26T03:16:31;100596.19;;;3.59;100.00
80585;BME280;70137;56.482;9.154;2024-02-26T03:18:57;100597.81;;;3.60;100.00
80585;BME280;70137;56.482;9.154;2024-02-26T03:21:24;100598.50;;;3.62;100.00
80585;BME280;70137;56.482;9.154;2024-02-26T03:23:50;100597.56;;;3.63;100.00
80585;BME280;70137;56.482;9.154;2024-02-26T03:26:15;100597.69;;;3.62;100.00
80585;BME280;70137;56.482;9.154;2024-02-26T03:28:41;100594.56;;;3.58;100.00
80585;BME280;70137;56.482;9.154;2024-02-26T03:31:06;100607.47;;;3.57;100.00
80585;BME280;70137;56.482;9.154;2024-02-26T03:33:31;100603.41;;;3.54;100.00
80585;BME280;70137;56.482;9.154;2024-02-26T03:35:57;100602.47;;;3.55;100.00
80585;BME280;70137;56.482;9.154;2024-02-26T03:38:22;100600.63;;;3.57;100.00
80585;BME280;70137;56.482;9.154;2024-02-26T03:40:48;100607.38;;;3.58;100.00
80585;BME280;70137;56.482;9.154;2024-02-26T03:43:14;100613.44;;;3.57;100.00
80585;BME280;70137;56.482;9.154;2024-02-26T03:45:39;100627.06;;;3.58;100.00
80585;BME280;70137;56.482;9.154;2024-02-26T03:48:05;100621.13;;;3.57;100.00
80585;BME280;70137;56.482;9.154;2024-02-26T03:50:31;100627.63;;;3.61;100.00
80585;BME280;70137;56.482;9.154;2024-02-26T03:52:56;100622.50;;;3.61;100.00
80585;BME280;70137;56.482;9.154;2024-02-26T03:55:22;100617.38;;;3.61;100.00
80585;BME280;70137;56.482;9.154;2024-02-26T03:57:51;100626.69;;;3.62;100.00
80585;BME280;70137;56.482;9.154;2024-02-26T04:00:16;100625.88;;;3.62;100.00
80585;BME280;70137;56.482;9.154;2024-02-26T04:02:43;100627.63;;;3.61;100.00
80585;BME280;70137;56.482;9.154;2024-02-26T04:05:10;100638.69;;;3.62;100.00
80585;BME280;70137;56.482;9.154;2024-02-26T04:07:35;100631.81;;;3.62;100.00
80585;BME280;70137;56.482;9.154;2024-02-26T04:10:01;100642.88;;;3.63;100.00
80585;BME280;70137;56.482;9.154;2024-02-26T04:12:29;100651.25;;;3.65;100.00
80585;BME280;70137;56.482;9.154;2024-02-26T04:14:54;100651.25;;;3.65;100.00
80585;BME280;70137;56.482;9.154;2024-02-26T04:17:19;100656.25;;;3.66;100.00
80585;BME280;70137;56.482;9.154;2024-02-26T04:19:45;100659.75;;;3.65;100.00
80585;BME280;70137;56.482;9.154;2024-02-26T04:22:10;100655.56;;;3.64;100.00
80585;BME280;70137;56.482;9.154;2024-02-26T04:24:36;100664.91;;;3.65;100.00
80585;BME280;70137;56.482;9.154;2024-02-26T04:27:01;100658.25;;;3.63;100.00
80585;BME280;70137;56.482;9.154;2024-02-26T04:29:27;100663.53;;;3.61;100.00
80585;BME280;70137;56.482;9.154;2024-02-26T04:31:52;100655.81;;;3.61;100.00
80585;BME280;70137;56.482;9.154;2024-02-26T04:34:17;100666.06;;;3.61;100.00
80585;BME280;70137;56.482;9.154;2024-02-26T04:36:43;100666.91;;;3.62;100.00
80585;BME280;70137;56.482;9.154;2024-02-26T04:39:09;100666.06;;;3.61;100.00
80585;BME280;70137;56.482;9.154;2024-02-26T04:41:35;100668.66;;;3.61;100.00
80585;BME280;70137;56.482;9.154;2024-02-26T04:44:00;100673.78;;;3.61;100.00
80585;BME280;70137;56.482;9.154;2024-02-26T04:46:27;100665.28;;;3.61;100.00
80585;BME280;70137;56.482;9.154;2024-02-26T04:48:53;100663.41;;;3.63;100.00
80585;BME280;70137;56.482;9.154;2024-02-26T04:51:19;100666.06;;;3.61;100.00
80585;BME280;70137;56.482;9.154;2024-02-26T04:53:44;100673.09;;;3.59;100.00
80585;BME280;70137;56.482;9.154;2024-02-26T04:56:10;100674.72;;;3.60;100.00
80585;BME280;70137;56.482;9.154;2024-02-26T04:58:35;100679.84;;;3.60;100.00
80585;BME280;70137;56.482;9.154;2024-02-26T05:01:00;100679.16;;;3.58;100.00
80585;BME280;70137;56.482;9.154;2024-02-26T05:03:26;100687.88;;;3.56;100.00
80585;BME280;70137;56.482;9.154;2024-02-26T05:05:51;100689.75;;;3.54;100.00
80585;BME280;70137;56.482;9.154;2024-02-26T05:08:17;100695.94;;;3.51;100.00
80585;BME280;70137;56.482;9.154;2024-02-26T05:10:42;100693.34;;;3.51;100.00
80585;BME280;70137;56.482;9.154;2024-02-26T05:13:08;100705.00;;;3.55;100.00
80585;BME280;70137;56.482;9.154;2024-02-26T05:15:34;100704.06;;;3.56;100.00
80585;BME280;70137;56.482;9.154;2024-02-26T05:17:59;100712.47;;;3.58;100.00
80585;BME280;70137;56.482;9.154;2024-02-26T05:20:25;100721.66;;;3.61;100.00
80585;BME280;70137;56.482;9.154;2024-02-26T05:22:51;100725.03;;;3.61;100.00
80585;BME280;70137;56.482;9.154;2024-02-26T05:25:17;100730.28;;;3.60;100.00
80585;BME280;70137;56.482;9.154;2024-02-26T05:27:43;100730.50;;;3.57;100.00
80585;BME280;70137;56.482;9.154;2024-02-26T05:30:09;100724.56;;;3.56;100.00
80585;BME280;70137;56.482;9.154;2024-02-26T05:32:35;100727.03;;;3.58;100.00
80585;BME280;70137;56.482;9.154;2024-02-26T05:35:00;100731.09;;;3.60;100.00
80585;BME280;70137;56.482;9.154;2024-02-26T05:37:28;100728.53;;;3.60;100.00
80585;BME280;70137;56.482;9.154;2024-02-26T05:39:53;100732.16;;;3.58;100.00
80585;BME280;70137;56.482;9.154;2024-02-26T05:42:18;100742.41;;;3.58;100.00
80585;BME280;70137;56.482;9.154;2024-02-26T05:44:44;100739.25;;;3.54;100.00
80585;BME280;70137;56.482;9.154;2024-02-26T05:47:09;100743.81;;;3.51;100.00
80585;BME280;70137;56.482;9.154;2024-02-26T05:49:35;100738.00;;;3.49;100.00
80585;BME280;70137;56.482;9.154;2024-02-26T05:52:00;100754.19;;;3.49;100.00
80585;BME280;70137;56.482;9.154;2024-02-26T05:54:25;100762.56;;;3.51;100.00
80585;BME280;70137;56.482;9.154;2024-02-26T05:56:51;100767.81;;;3.50;100.00
80585;BME280;70137;56.482;9.154;2024-02-26T05:59:17;100772.00;;;3.51;100.00
80585;BME280;70137;56.482;9.154;2024-02-26T06:01:42;100779.56;;;3.52;100.00
80585;BME280;70137;56.482;9.154;2024-02-26T06:04:08;100781.19;;;3.53;100.00
80585;BME280;70137;56.482;9.154;2024-02-26T06:06:33;100783.19;;;3.50;100.00
80585;BME280;70137;56.482;9.154;2024-02-26T06:08:58;100779.81;;;3.49;100.00
80585;BME280;70137;56.482;9.154;2024-02-26T06:11:24;100788.19;;;3.51;100.00
80585;BME280;70137;56.482;9.154;2024-02-26T06:13:49;100789.94;;;3.51;100.00
80585;BME280;70137;56.482;9.154;2024-02-26T06:16:15;100798.69;;;3.48;100.00
80585;BME280;70137;56.482;9.154;2024-02-26T06:18:41;100794.47;;;3.47;100.00
80585;BME280;70137;56.482;9.154;2024-02-26T06:21:09;100800.31;;;3.49;100.00
80585;BME280;70137;56.482;9.154;2024-02-26T06:23:35;100812.19;;;3.50;100.00
80585;BME280;70137;56.482;9.154;2024-02-26T06:26:01;100812.19;;;3.50;100.00
80585;BME280;70137;56.482;9.154;2024-02-26T06:28:26;100818.94;;;3.51;100.00
80585;BME280;70137;56.482;9.154;2024-02-26T06:30:53;100826.41;;;3.54;100.00
80585;BME280;70137;56.482;9.154;2024-02-26T06:33:18;100823.13;;;3.52;100.00
80585;BME280;70137;56.482;9.154;2024-02-26T06:35:43;100830.81;;;3.52;100.00
80585;BME280;70137;56.482;9.154;2024-02-26T06:38:09;100827.31;;;3.53;100.00
80585;BME280;70137;56.482;9.154;2024-02-26T06:40:36;100832.56;;;3.52;100.00
80585;BME280;70137;56.482;9.154;2024-02-26T06:43:02;100834.31;;;3.51;100.00
80585;BME280;70137;56.482;9.154;2024-02-26T06:45:27;100841.06;;;3.52;100.00
80585;BME280;70137;56.482;9.154;2024-02-26T06:47:52;100838.41;;;3.54;100.00
80585;BME280;70137;56.482;9.154;2024-02-26T06:50:18;100847.59;;;3.56;100.00
80585;BME280;70137;56.482;9.154;2024-02-26T06:52:44;100852.63;;;3.58;100.00
80585;BME280;70137;56.482;9.154;2024-02-26T06:55:10;100858.66;;;3.57;100.00
80585;BME280;70137;56.482;9.154;2024-02-26T06:57:36;100859.38;;;3.59;100.00
80585;BME280;70137;56.482;9.154;2024-02-26T07:00:02;100858.56;;;3.58;100.00
80585;BME280;70137;56.482;9.154;2024-02-26T07:02:29;100861.13;;;3.58;100.00
80585;BME280;70137;56.482;9.154;2024-02-26T07:04:54;100866.03;;;3.61;100.00
80585;BME280;70137;56.482;9.154;2024-02-26T07:07:21;100869.16;;;3.65;100.00
80585;BME280;70137;56.482;9.154;2024-02-26T07:09:47;100874.09;;;3.68;100.00
80585;BME280;70137;56.482;9.154;2024-02-26T07:12:13;100871.28;;;3.71;100.00
80585;BME280;70137;56.482;9.154;2024-02-26T07:14:39;100875.34;;;3.73;100.00
80585;BME280;70137;56.482;9.154;2024-02-26T07:17:04;100874.41;;;3.74;100.00
80585;BME280;70137;56.482;9.154;2024-02-26T07:19:29;100882.91;;;3.75;100.00
80585;BME280;70137;56.482;9.154;2024-02-26T07:21:55;100892.97;;;3.78;100.00
80585;BME280;70137;56.482;9.154;2024-02-26T07:24:20;100895.41;;;3.80;100.00
80585;BME280;70137;56.482;9.154;2024-02-26T07:26:46;100892.59;;;3.83;100.00
80585;BME280;70137;56.482;9.154;2024-02-26T07:29:11;100903.34;;;3.88;100.00
80585;BME280;70137;56.482;9.154;2024-02-26T07:31:37;100899.84;;;3.89;100.00
80585;BME280;70137;56.482;9.154;2024-02-26T07:34:02;100916.19;;;3.88;100.00
80585;BME280;70137;56.482;9.154;2024-02-26T07:36:28;100917.31;;;3.84;100.00
80585;BME280;70137;56.482;9.154;2024-02-26T07:38:53;100917.31;;;3.84;100.00
80585;BME280;70137;56.482;9.154;2024-02-26T07:41:20;100918.13;;;3.84;100.00
80585;BME280;70137;56.482;9.154;2024-02-26T07:43:45;100922.44;;;3.84;100.00
80585;BME280;70137;56.482;9.154;2024-02-26T07:46:13;100930.75;;;3.87;100.00
80585;BME280;70137;56.482;9.154;2024-02-26T07:48:39;100935.75;;;3.89;100.00
80585;BME280;70137;56.482;9.154;2024-02-26T07:51:04;100943.34;;;3.90;100.00
80585;BME280;70137;56.482;9.154;2024-02-26T07:53:30;100954.03;;;3.95;100.00
80585;BME280;70137;56.482;9.154;2024-02-26T07:55:56;100960.72;;;3.98;100.00
80585;BME280;70137;56.482;9.154;2024-02-26T07:58:22;100958.03;;;3.99;100.00
80585;BME280;70137;56.482;9.154;2024-02-26T08:00:48;100959.78;;;3.99;100.00
80585;BME280;70137;56.482;9.154;2024-02-26T08:03:14;100967.47;;;3.99;100.00
80585;BME280;70137;56.482;9.154;2024-02-26T08:05:41;100963.41;;;3.96;100.00
80585;BME280;70137;56.482;9.154;2024-02-26T08:08:07;100971.78;;;3.98;100.00
80585;BME280;70137;56.482;9.154;2024-02-26T08:10:33;100965.59;;;4.01;100.00
80585;BME280;70137;56.482;9.154;2024-02-26T08:12:58;100975.41;;;4.07;100.00
80585;BME280;70137;56.482;9.154;2024-02-26T08:15:30;100975.41;;;4.07;100.00
80585;BME280;70137;56.482;9.154;2024-02-26T08:17:56;100986.13;;;4.12;100.00
80585;BME280;70137;56.482;9.154;2024-02-26T08:20:21;100984.06;;;4.17;100.00
80585;BME280;70137;56.482;9.154;2024-02-26T08:22:47;100984.75;;;4.19;100.00
80585;BME280;70137;56.482;9.154;2024-02-26T08:25:12;100998.28;;;4.21;100.00
80585;BME280;70137;56.482;9.154;2024-02-26T08:27:37;100992.09;;;4.24;100.00
80585;BME280;70137;56.482;9.154;2024-02-26T08:30:03;100997.81;;;4.27;100.00
80585;BME280;70137;56.482;9.154;2024-02-26T08:32:28;101001.09;;;4.29;100.00
80585;BME280;70137;56.482;9.154;2024-02-26T08:34:54;101001.09;;;4.29;100.00
80585;BME280;70137;56.482;9.154;2024-02-26T08:37:19;101007.84;;;4.30;100.00
80585;BME280;70137;56.482;9.154;2024-02-26T08:39:45;101003.78;;;4.28;100.00
80585;BME280;70137;56.482;9.154;2024-02-26T08:42:11;101006.47;;;4.26;100.00
80585;BME280;70137;56.482;9.154;2024-02-26T08:44:36;101011.72;;;4.25;100.00
80585;BME280;70137;56.482;9.154;2024-02-26T08:47:01;101011.78;;;4.23;100.00
80585;BME280;70137;56.482;9.154;2024-02-26T08:49:29;101016.00;;;4.24;100.00
80585;BME280;70137;56.482;9.154;2024-02-26T08:51:54;101016.94;;;4.23;100.00
80585;BME280;70137;56.482;9.154;2024-02-26T08:54:19;101014.84;;;4.28;100.00
80585;BME280;70137;56.482;9.154;2024-02-26T08:56:45;101026.50;;;4.32;100.00
80585;BME280;70137;56.482;9.154;2024-02-26T08:59:10;101026.75;;;4.29;100.00
80585;BME280;70137;56.482;9.154;2024-02-26T09:01:35;101028.38;;;4.30;100.00
80585;BME280;70137;56.482;9.154;2024-02-26T09:04:01;101030.81;;;4.32;100.00
80585;BME280;70137;56.482;9.154;2024-02-26T09:06:26;101035.13;;;4.31;100.00
80585;BME280;70137;56.482;9.154;2024-02-26T09:08:51;101047.16;;;4.31;100.00
80585;BME280;70137;56.482;9.154;2024-02-26T09:11:17;101044.59;;;4.31;100.00
80585;BME280;70137;56.482;9.154;2024-02-26T09:13:42;101047.28;;;4.29;100.00
80585;BME280;70137;56.482;9.154;2024-02-26T09:16:08;101052.53;;;4.28;100.00
80585;BME280;70137;56.482;9.154;2024-02-26T09:18:33;101049.59;;;4.32;100.00
80585;BME280;70137;56.482;9.154;2024-02-26T09:20:58;101048.47;;;4.37;100.00
80585;BME280;70137;56.482;9.154;2024-02-26T09:23:24;101052.31;;;4.42;100.00
80585;BME280;70137;56.482;9.154;2024-02-26T09:25:49;101058.03;;;4.46;100.00
80585;BME280;70137;56.482;9.154;2024-02-26T09:28:15;101061.53;;;4.45;100.00
80585;BME280;70137;56.482;9.154;2024-02-26T09:30:44;101054.75;;;4.44;100.00
80585;BME280;70137;56.482;9.154;2024-02-26T09:33:09;101063.16;;;4.46;100.00
80585;BME280;70137;56.482;9.154;2024-02-26T09:35:34;101068.06;;;4.49;100.00
80585;BME280;70137;56.482;9.154;2024-02-26T09:38:00;101072.97;;;4.52;100.00
80585;BME280;70137;56.482;9.154;2024-02-26T09:40:25;101071.31;;;4.51;100.00
80585;BME280;70137;56.482;9.154;2024-02-26T09:42:59;101074.59;;;4.53;100.00
80585;BME280;70137;56.482;9.154;2024-02-26T09:45:25;101083.94;;;4.54;100.00
80585;BME280;70137;56.482;9.154;2024-02-26T09:47:55;101081.97;;;4.57;100.00
80585;BME280;70137;56.482;9.154;2024-02-26T09:50:21;101084.66;;;4.67;100.00
80585;BME280;70137;56.482;9.154;2024-02-26T09:52:49;101083.25;;;4.74;100.00
80585;BME280;70137;56.482;9.154;2024-02-26T09:55:14;101085.34;;;4.80;100.00
80585;BME280;70137;56.482;9.154;2024-02-26T09:57:45;101083.94;;;4.87;100.00
80585;BME280;70137;56.482;9.154;2024-02-26T10:00:17;101097.28;;;4.93;100.00
80585;BME280;70137;56.482;9.154;2024-02-26T10:02:43;101085.34;;;4.92;100.00
80585;BME280;70137;56.482;9.154;2024-02-26T10:05:12;101087.56;;;4.96;100.00
80585;BME280;70137;56.482;9.154;2024-02-26T10:07:40;101088.72;;;5.03;100.00
80585;BME280;70137;56.482;9.154;2024-02-26T10:10:05;101096.44;;;5.03;100.00
80585;BME280;70137;56.482;9.154;2024-02-26T10:12:32;101092.25;;;5.02;100.00
80585;BME280;70137;56.482;9.154;2024-02-26T10:14:58;101102.53;;;5.02;100.00
80585;BME280;70137;56.482;9.154;2024-02-26T10:17:23;101104.59;;;5.08;100.00
80585;BME280;70137;56.482;9.154;2024-02-26T10:19:49;101097.50;;;5.12;100.00
80585;BME280;70137;56.482;9.154;2024-02-26T10:22:16;101095.34;;;5.17;100.00
80585;BME280;70137;56.482;9.154;2024-02-26T10:24:42;101101.91;;;5.21;100.00
80585;BME280;70137;56.482;9.154;2024-02-26T10:27:08;101103.28;;;5.25;100.00
80585;BME280;70137;56.482;9.154;2024-02-26T10:29:34;101107.25;;;5.29;100.00
80585;BME280;70137;56.482;9.154;2024-02-26T10:31:59;101110.28;;;5.34;100.00
80585;BME280;70137;56.482;9.154;2024-02-26T10:34:26;101114.25;;;5.38;100.00
80585;BME280;70137;56.482;9.154;2024-02-26T10:36:51;101112.28;;;5.42;100.00
80585;BME280;70137;56.482;9.154;2024-02-26T10:39:17;101119.59;;;5.46;100.00
80585;BME280;70137;56.482;9.154;2024-02-26T10:41:44;101122.19;;;5.46;100.00
80585;BME280;70137;56.482;9.154;2024-02-26T10:44:11;101124.19;;;5.43;99.79
80585;BME280;70137;56.482;9.154;2024-02-26T10:46:37;101127.31;;;5.46;99.21
80585;BME280;70137;56.482;9.154;2024-02-26T10:49:04;101128.72;;;5.51;98.74
80585;BME280;70137;56.482;9.154;2024-02-26T10:51:30;101135.25;;;5.55;98.68
80585;BME280;70137;56.482;9.154;2024-02-26T10:53:58;101134.88;;;5.59;97.53
80585;BME280;70137;56.482;9.154;2024-02-26T10:56:26;101134.06;;;5.59;96.62
80585;BME280;70137;56.482;9.154;2024-02-26T10:58:55;101132.69;;;5.55;95.43
80585;BME280;70137;56.482;9.154;2024-02-26T11:01:21;101142.84;;;5.56;95.24
80585;BME280;70137;56.482;9.154;2024-02-26T11:03:55;101138.75;;;5.54;95.62
80585;BME280;70137;56.482;9.154;2024-02-26T11:06:22;101150.56;;;5.56;95.76
80585;BME280;70137;56.482;9.154;2024-02-26T11:08:48;101149.88;;;5.54;94.76
80585;BME280;70137;56.482;9.154;2024-02-26T11:11:16;101151.16;;;5.49;94.45
80585;BME280;70137;56.482;9.154;2024-02-26T11:13:46;101154.66;;;5.47;93.63
80585;BME280;70137;56.482;9.154;2024-02-26T11:16:16;101155.59;;;5.46;93.93
80585;BME280;70137;56.482;9.154;2024-02-26T11:18:43;101161.34;;;5.50;94.89
80585;BME280;70137;56.482;9.154;2024-02-26T11:21:15;101157.00;;;5.51;94.56
80585;BME280;70137;56.482;9.154;2024-02-26T11:23:41;101162.84;;;5.53;94.67
80585;BME280;70137;56.482;9.154;2024-02-26T11:26:07;101164.47;;;5.54;94.65
80585;BME280;70137;56.482;9.154;2024-02-26T11:28:35;101163.31;;;5.46;94.14
80585;BME280;70137;56.482;9.154;2024-02-26T11:31:01;101171.41;;;5.42;93.60
80585;BME280;70137;56.482;9.154;2024-02-26T11:33:28;101169.16;;;5.37;93.27
80585;BME280;70137;56.482;9.154;2024-02-26T11:35:55;101163.47;;;5.34;93.59
80585;BME280;70137;56.482;9.154;2024-02-26T11:38:21;101163.59;;;5.32;93.60
80585;BME280;70137;56.482;9.154;2024-02-26T11:40:47;101181.56;;;5.32;93.91
80585;BME280;70137;56.482;9.154;2024-02-26T11:43:13;101179.13;;;5.31;93.99
80585;BME280;70137;56.482;9.154;2024-02-26T11:48:04;101187.75;;;5.30;94.11
80585;BME280;70137;56.482;9.154;2024-02-26T11:50:39;101186.94;;;5.29;94.60
80585;BME280;70137;56.482;9.154;2024-02-26T11:53:27;101183.44;;;5.30;95.14
80585;BME280;70137;56.482;9.154;2024-02-26T11:59:04;101191.38;;;5.16;94.87
80585;BME280;70137;56.482;9.154;2024-02-26T12:01:43;101191.84;;;5.10;94.32
80585;BME280;70137;56.482;9.154;2024-02-26T12:04:19;101194.53;;;5.08;94.63
80585;BME280;70137;56.482;9.154;2024-02-26T12:07:05;101187.75;;;5.07;95.25
80585;BME280;70137;56.482;9.154;2024-02-26T12:09:35;101196.78;;;5.13;95.07
80585;BME280;70137;56.482;9.154;2024-02-26T12:12:02;101194.28;;;5.11;95.31
80585;BME280;70137;56.482;9.154;2024-02-26T12:14:28;101194.19;;;5.13;94.67
80585;BME280;70137;56.482;9.154;2024-02-26T12:16:55;101200.28;;;5.12;94.37
80585;BME280;70137;56.482;9.154;2024-02-26T12:19:21;101198.63;;;5.11;94.32
80585;BME280;70137;56.482;9.154;2024-02-26T12:21:51;101202.72;;;5.13;94.65
80585;BME280;70137;56.482;9.154;2024-02-26T12:24:18;101207.75;;;5.15;94.29
80585;BME280;70137;56.482;9.154;2024-02-26T12:26:43;101206.81;;;5.16;93.93
80585;BME280;70137;56.482;9.154;2024-02-26T12:29:09;101199.59;;;5.21;94.53
80585;BME280;70137;56.482;9.154;2024-02-26T12:31:35;101204.47;;;5.24;92.26
80585;BME280;70137;56.482;9.154;2024-02-26T12:34:04;101209.13;;;5.30;89.71
80585;BME280;70137;56.482;9.154;2024-02-26T12:36:30;101202.00;;;5.56;88.39
80585;BME280;70137;56.482;9.154;2024-02-26T12:38:55;101214.13;;;5.65;89.28
80585;BME280;70137;56.482;9.154;2024-02-26T12:41:22;101217.66;;;5.64;85.82
80585;BME280;70137;56.482;9.154;2024-02-26T12:43:47;101216.47;;;5.57;85.24
80585;BME280;70137;56.482;9.154;2024-02-26T12:46:13;101222.69;;;5.55;84.63
80585;BME280;70137;56.482;9.154;2024-02-26T12:48:42;101226.31;;;5.52;84.79
80585;BME280;70137;56.482;9.154;2024-02-26T12:51:08;101231.34;;;5.54;83.92
80585;BME280;70137;56.482;9.154;2024-02-26T12:53:35;101228.28;;;5.49;83.88